Terminal Aerodrome Forecast
Issued by NWS

Home | Current Version | Previous Version | Text Only | Print | Product List | Glossary On
Versions: 1 2 3 4 5 6 7 8 9 10 11 12 13 14 15 16 17
000
FTUS42 KMLB 301700
TAFFPR
TAF
KFPR 301734Z 3018/0118 29010KT P6SM VCSH FEW015 BKN024
      TEMPO 3018/3020 3SM TSRA BKN025CB
     FM302000 29008KT P6SM VCTS SCT020CB OVC040
      TEMPO 3020/3023 2SM TSRA BKN020CB
     FM010000 27006KT P6SM VCSH SCT020 BKN080
     FM011400 28006KT P6SM SCT010 OVC030=

USA.gov is the U.S. government's official web portal to all federal, state and local government web resources and services.